sensor_id;sensor_type;location;lat;lon;timestamp;pressure;altitude;pressure_sealevel;temperature;humidity
7075;BME280;3578;51.568;6.932;2023-03-18T00:01:09;53911.50;;;-144.14;89.38
7075;BME280;3578;51.568;6.932;2023-03-18T00:03:46;53877.41;;;-144.14;89.82
7075;BME280;3578;51.568;6.932;2023-03-18T00:06:18;53857.38;;;-144.14;90.35
7075;BME280;3578;51.568;6.932;2023-03-18T00:08:48;53863.38;;;-144.14;90.86
7075;BME280;3578;51.568;6.932;2023-03-18T00:11:17;53867.38;;;-144.14;91.21
7075;BME280;3578;51.568;6.932;2023-03-18T00:13:46;53807.25;;;-144.14;91.30
7075;BME280;3578;51.568;6.932;2023-03-18T00:16:14;53819.28;;;-144.14;91.10
7075;BME280;3578;51.568;6.932;2023-03-18T00:18:41;53805.25;;;-144.14;91.23
7075;BME280;3578;51.568;6.932;2023-03-18T00:21:10;53747.13;;;-144.14;91.36
7075;BME280;3578;51.568;6.932;2023-03-18T00:23:37;53799.25;;;-144.14;91.48
7075;BME280;3578;51.568;6.932;2023-03-18T00:26:04;53767.16;;;-144.14;91.35
7075;BME280;3578;51.568;6.932;2023-03-18T00:28:34;53787.22;;;-144.14;91.15
7075;BME280;3578;51.568;6.932;2023-03-18T00:31:04;53755.13;;;-144.14;91.29
7075;BME280;3578;51.568;6.932;2023-03-18T00:33:33;53717.06;;;-144.14;91.50
7075;BME280;3578;51.568;6.932;2023-03-18T00:36:01;53725.06;;;-144.14;91.40
7075;BME280;3578;51.568;6.932;2023-03-18T00:38:30;53717.06;;;-144.14;91.64
7075;BME280;3578;51.568;6.932;2023-03-18T00:40:58;53682.97;;;-144.14;91.76
7075;BME280;3578;51.568;6.932;2023-03-18T00:43:37;53699.03;;;-144.14;91.91
7075;BME280;3578;51.568;6.932;2023-03-18T00:46:12;53723.06;;;-144.14;92.34
7075;BME280;3578;51.568;6.932;2023-03-18T00:48:41;53680.97;;;-144.14;92.22
7075;BME280;3578;51.568;6.932;2023-03-18T00:51:08;53668.94;;;-144.14;92.13
7075;BME280;3578;51.568;6.932;2023-03-18T00:53:40;53674.97;;;-144.14;91.90
7075;BME280;3578;51.568;6.932;2023-03-18T00:56:07;53658.94;;;-144.14;91.71
7075;BME280;3578;51.568;6.932;2023-03-18T00:58:34;53670.97;;;-144.14;91.67
7075;BME280;3578;51.568;6.932;2023-03-18T01:01:02;53664.94;;;-144.14;91.55
7075;BME280;3578;51.568;6.932;2023-03-18T01:03:29;53640.88;;;-144.14;91.79
7075;BME280;3578;51.568;6.932;2023-03-18T01:05:58;53630.88;;;-144.14;91.84
7075;BME280;3578;51.568;6.932;2023-03-18T01:08:27;53626.88;;;-144.14;92.04
7075;BME280;3578;51.568;6.932;2023-03-18T01:10:56;53618.84;;;-144.14;92.36
7075;BME280;3578;51.568;6.932;2023-03-18T01:13:23;53580.75;;;-144.14;92.51
7075;BME280;3578;51.568;6.932;2023-03-18T01:15:51;53562.72;;;-144.14;92.90
7075;BME280;3578;51.568;6.932;2023-03-18T01:18:19;53600.81;;;-144.14;93.04
7075;BME280;3578;51.568;6.932;2023-03-18T01:20:46;53578.75;;;-144.14;93.18
7075;BME280;3578;51.568;6.932;2023-03-18T01:23:14;53538.69;;;-144.14;93.28
7075;BME280;3578;51.568;6.932;2023-03-18T01:25:41;53544.69;;;-144.14;93.07
7075;BME280;3578;51.568;6.932;2023-03-18T01:28:11;53534.66;;;-144.14;93.24
7075;BME280;3578;51.568;6.932;2023-03-18T01:30:38;53508.59;;;-144.14;93.42
7075;BME280;3578;51.568;6.932;2023-03-18T01:33:06;53524.66;;;-144.14;93.68
7075;BME280;3578;51.568;6.932;2023-03-18T01:35:34;53474.53;;;-144.14;93.90
7075;BME280;3578;51.568;6.932;2023-03-18T01:38:02;53446.47;;;-144.14;94.15
7075;BME280;3578;51.568;6.932;2023-03-18T01:40:32;53440.47;;;-144.14;94.22
7075;BME280;3578;51.568;6.932;2023-03-18T01:43:14;53476.53;;;-144.14;94.35
7075;BME280;3578;51.568;6.932;2023-03-18T01:45:47;53514.63;;;-144.14;94.29
7075;BME280;3578;51.568;6.932;2023-03-18T01:48:17;53474.53;;;-144.14;94.28
7075;BME280;3578;51.568;6.932;2023-03-18T01:50:47;53442.47;;;-144.14;94.22
7075;BME280;3578;51.568;6.932;2023-03-18T01:53:17;53474.53;;;-144.14;94.06
7075;BME280;3578;51.568;6.932;2023-03-18T01:55:47;53502.59;;;-144.14;94.07
7075;BME280;3578;51.568;6.932;2023-03-18T01:58:24;53466.53;;;-144.14;93.96
7075;BME280;3578;51.568;6.932;2023-03-18T02:00:58;53524.66;;;-144.14;93.42
7075;BME280;3578;51.568;6.932;2023-03-18T02:03:27;53530.66;;;-144.14;93.45
7075;BME280;3578;51.568;6.932;2023-03-18T02:05:54;53530.66;;;-144.14;93.46
7075;BME280;3578;51.568;6.932;2023-03-18T02:08:22;53518.63;;;-144.14;93.44
7075;BME280;3578;51.568;6.932;2023-03-18T02:10:49;53518.63;;;-144.14;93.53
7075;BME280;3578;51.568;6.932;2023-03-18T02:13:18;53508.59;;;-144.14;93.88
7075;BME280;3578;51.568;6.932;2023-03-18T02:15:49;53538.69;;;-144.14;94.23
7075;BME280;3578;51.568;6.932;2023-03-18T02:18:21;53470.53;;;-144.14;94.66
7075;BME280;3578;51.568;6.932;2023-03-18T02:21:13;53458.50;;;-144.14;94.91
7075;BME280;3578;51.568;6.932;2023-03-18T02:23:51;53442.47;;;-144.14;94.84
7075;BME280;3578;51.568;6.932;2023-03-18T02:26:27;53426.44;;;-144.14;95.00
7075;BME280;3578;51.568;6.932;2023-03-18T02:28:59;53470.53;;;-144.14;95.02
7075;BME280;3578;51.568;6.932;2023-03-18T02:31:32;53440.47;;;-144.14;94.91
7075;BME280;3578;51.568;6.932;2023-03-18T02:34:01;53454.50;;;-144.14;94.69
7075;BME280;3578;51.568;6.932;2023-03-18T02:36:32;53418.41;;;-144.14;94.57
7075;BME280;3578;51.568;6.932;2023-03-18T02:39:02;53450.50;;;-144.14;94.44
7075;BME280;3578;51.568;6.932;2023-03-18T02:41:32;53384.34;;;-144.14;94.14
7075;BME280;3578;51.568;6.932;2023-03-18T02:44:01;53436.47;;;-144.14;94.26
7075;BME280;3578;51.568;6.932;2023-03-18T02:46:34;53382.34;;;-144.14;95.00
7075;BME280;3578;51.568;6.932;2023-03-18T02:49:06;53362.31;;;-144.14;95.05
7075;BME280;3578;51.568;6.932;2023-03-18T02:51:34;53368.31;;;-144.14;94.85
7075;BME280;3578;51.568;6.932;2023-03-18T02:54:06;53324.22;;;-144.14;94.80
7075;BME280;3578;51.568;6.932;2023-03-18T02:56:35;53314.19;;;-144.14;94.71
7075;BME280;3578;51.568;6.932;2023-03-18T02:59:04;53334.25;;;-144.14;94.92
7075;BME280;3578;51.568;6.932;2023-03-18T03:01:32;53322.22;;;-144.14;95.40
7075;BME280;3578;51.568;6.932;2023-03-18T03:04:01;53270.13;;;-144.14;95.68
7075;BME280;3578;51.568;6.932;2023-03-18T03:06:28;53246.06;;;-144.14;95.72
7075;BME280;3578;51.568;6.932;2023-03-18T03:08:55;53252.06;;;-144.14;95.83
7075;BME280;3578;51.568;6.932;2023-03-18T03:11:23;53203.97;;;-144.14;95.90
7075;BME280;3578;51.568;6.932;2023-03-18T03:13:50;53203.97;;;-144.14;96.10
7075;BME280;3578;51.568;6.932;2023-03-18T03:16:19;53175.91;;;-144.14;96.40
7075;BME280;3578;51.568;6.932;2023-03-18T03:18:47;53171.91;;;-144.14;96.65
7075;BME280;3578;51.568;6.932;2023-03-18T03:21:14;53157.88;;;-144.14;96.76
7075;BME280;3578;51.568;6.932;2023-03-18T03:23:42;53169.91;;;-144.14;96.64
7075;BME280;3578;51.568;6.932;2023-03-18T03:26:10;53141.84;;;-144.14;96.70
7075;BME280;3578;51.568;6.932;2023-03-18T03:28:37;53115.81;;;-144.14;96.64
7075;BME280;3578;51.568;6.932;2023-03-18T03:31:04;53093.75;;;-144.14;96.84
7075;BME280;3578;51.568;6.932;2023-03-18T03:33:33;53089.75;;;-144.14;96.97
7075;BME280;3578;51.568;6.932;2023-03-18T03:36:00;53065.69;;;-144.14;96.94
7075;BME280;3578;51.568;6.932;2023-03-18T03:38:28;53041.66;;;-144.14;97.53
7075;BME280;3578;51.568;6.932;2023-03-18T03:40:55;52973.53;;;-144.14;97.67
7075;BME280;3578;51.568;6.932;2023-03-18T03:43:23;52979.53;;;-144.14;97.69
7075;BME280;3578;51.568;6.932;2023-03-18T03:45:50;52975.53;;;-144.14;97.64
7075;BME280;3578;51.568;6.932;2023-03-18T03:48:17;52969.50;;;-144.14;97.67
7075;BME280;3578;51.568;6.932;2023-03-18T03:50:45;52951.47;;;-144.14;97.64
7075;BME280;3578;51.568;6.932;2023-03-18T03:53:12;52941.44;;;-144.14;97.57
7075;BME280;3578;51.568;6.932;2023-03-18T03:55:40;52945.47;;;-144.14;97.65
7075;BME280;3578;51.568;6.932;2023-03-18T03:58:07;52953.47;;;-144.14;97.65
7075;BME280;3578;51.568;6.932;2023-03-18T04:00:34;52893.38;;;-144.14;97.65
7075;BME280;3578;51.568;6.932;2023-03-18T04:03:01;52901.38;;;-144.14;97.84
7075;BME280;3578;51.568;6.932;2023-03-18T04:05:29;52871.31;;;-144.14;97.97
7075;BME280;3578;51.568;6.932;2023-03-18T04:07:57;52893.38;;;-144.14;97.96
7075;BME280;3578;51.568;6.932;2023-03-18T04:10:26;52845.28;;;-144.14;97.99
7075;BME280;3578;51.568;6.932;2023-03-18T04:12:54;52841.25;;;-144.14;98.05
7075;BME280;3578;51.568;6.932;2023-03-18T04:15:21;52797.19;;;-144.14;98.42
7075;BME280;3578;51.568;6.932;2023-03-18T04:17:48;52813.22;;;-144.14;98.31
7075;BME280;3578;51.568;6.932;2023-03-18T04:20:16;52805.19;;;-144.14;98.43
7075;BME280;3578;51.568;6.932;2023-03-18T04:22:44;52803.19;;;-144.14;98.47
7075;BME280;3578;51.568;6.932;2023-03-18T04:25:13;52741.06;;;-144.14;98.56
7075;BME280;3578;51.568;6.932;2023-03-18T04:27:41;52791.16;;;-144.14;98.46
7075;BME280;3578;51.568;6.932;2023-03-18T04:30:10;52789.16;;;-144.14;98.40
7075;BME280;3578;51.568;6.932;2023-03-18T04:32:37;52735.06;;;-144.14;98.59
7075;BME280;3578;51.568;6.932;2023-03-18T04:35:05;52737.06;;;-144.14;98.71
7075;BME280;3578;51.568;6.932;2023-03-18T04:37:33;52711.00;;;-144.14;98.80
7075;BME280;3578;51.568;6.932;2023-03-18T04:40:01;52648.91;;;-144.14;98.96
7075;BME280;3578;51.568;6.932;2023-03-18T04:42:31;52606.81;;;-144.14;99.08
7075;BME280;3578;51.568;6.932;2023-03-18T04:44:58;52622.84;;;-144.14;99.19
7075;BME280;3578;51.568;6.932;2023-03-18T04:47:25;52614.84;;;-144.14;99.23
7075;BME280;3578;51.568;6.932;2023-03-18T04:49:52;52616.84;;;-144.14;99.11
7075;BME280;3578;51.568;6.932;2023-03-18T04:52:20;52556.72;;;-144.14;98.99
7075;BME280;3578;51.568;6.932;2023-03-18T04:54:47;52594.78;;;-144.14;98.91
7075;BME280;3578;51.568;6.932;2023-03-18T04:57:14;52602.81;;;-144.14;99.06
7075;BME280;3578;51.568;6.932;2023-03-18T04:59:44;52528.69;;;-144.14;99.36
7075;BME280;3578;51.568;6.932;2023-03-18T05:02:12;52440.50;;;-144.14;99.72
7075;BME280;3578;51.568;6.932;2023-03-18T05:04:39;52426.50;;;-144.14;99.93
7075;BME280;3578;51.568;6.932;2023-03-18T05:07:06;52338.34;;;-144.14;100.00
7075;BME280;3578;51.568;6.932;2023-03-18T05:09:33;52220.13;;;-144.14;100.00
7075;BME280;3578;51.568;6.932;2023-03-18T05:12:00;52178.06;;;-144.14;100.00
7075;BME280;3578;51.568;6.932;2023-03-18T05:14:27;52180.06;;;-144.14;100.00
7075;BME280;3578;51.568;6.932;2023-03-18T05:16:55;52162.03;;;-144.14;100.00
7075;BME280;3578;51.568;6.932;2023-03-18T05:19:22;52105.94;;;-144.14;100.00
7075;BME280;3578;51.568;6.932;2023-03-18T05:21:49;52103.94;;;-144.14;100.00
7075;BME280;3578;51.568;6.932;2023-03-18T05:24:16;52097.91;;;-144.14;100.00
7075;BME280;3578;51.568;6.932;2023-03-18T05:26:43;52087.91;;;-144.14;100.00
7075;BME280;3578;51.568;6.932;2023-03-18T05:29:10;52053.84;;;-144.14;100.00
7075;BME280;3578;51.568;6.932;2023-03-18T05:31:37;52059.84;;;-144.14;100.00
7075;BME280;3578;51.568;6.932;2023-03-18T05:34:06;52009.75;;;-144.14;100.00
7075;BME280;3578;51.568;6.932;2023-03-18T05:36:33;52015.78;;;-144.14;100.00
7075;BME280;3578;51.568;6.932;2023-03-18T05:39:01;51993.75;;;-144.14;100.00
7075;BME280;3578;51.568;6.932;2023-03-18T05:41:28;51979.72;;;-144.14;100.00
7075;BME280;3578;51.568;6.932;2023-03-18T05:43:55;52067.88;;;-144.14;100.00
7075;BME280;3578;51.568;6.932;2023-03-18T05:46:22;52029.78;;;-144.14;100.00
7075;BME280;3578;51.568;6.932;2023-03-18T05:48:49;52043.81;;;-144.14;100.00
7075;BME280;3578;51.568;6.932;2023-03-18T05:51:18;52063.84;;;-144.14;100.00
7075;BME280;3578;51.568;6.932;2023-03-18T05:53:46;51967.69;;;-144.14;100.00
7075;BME280;3578;51.568;6.932;2023-03-18T05:56:14;52053.84;;;-144.14;100.00
7075;BME280;3578;51.568;6.932;2023-03-18T05:58:43;52097.91;;;-144.14;100.00
7075;BME280;3578;51.568;6.932;2023-03-18T06:01:11;52127.97;;;-144.14;100.00
7075;BME280;3578;51.568;6.932;2023-03-18T06:03:38;52127.97;;;-144.14;100.00
7075;BME280;3578;51.568;6.932;2023-03-18T06:06:06;52140.00;;;-144.14;99.97
7075;BME280;3578;51.568;6.932;2023-03-18T06:08:34;52140.00;;;-144.14;99.87
7075;BME280;3578;51.568;6.932;2023-03-18T06:11:02;52188.06;;;-144.14;99.82
7075;BME280;3578;51.568;6.932;2023-03-18T06:13:29;52127.97;;;-144.14;99.95
7075;BME280;3578;51.568;6.932;2023-03-18T06:15:57;52146.00;;;-144.14;99.88
7075;BME280;3578;51.568;6.932;2023-03-18T06:18:24;52170.03;;;-144.14;99.76
7075;BME280;3578;51.568;6.932;2023-03-18T06:20:52;52172.03;;;-144.14;99.74
7075;BME280;3578;51.568;6.932;2023-03-18T06:23:19;52216.13;;;-144.14;99.66
7075;BME280;3578;51.568;6.932;2023-03-18T06:25:48;52248.19;;;-144.14;99.32
7075;BME280;3578;51.568;6.932;2023-03-18T06:28:15;52268.22;;;-144.14;99.18
7075;BME280;3578;51.568;6.932;2023-03-18T06:30:43;52284.25;;;-144.14;99.03
7075;BME280;3578;51.568;6.932;2023-03-18T06:33:10;52276.22;;;-144.14;98.94
7075;BME280;3578;51.568;6.932;2023-03-18T06:35:37;52316.28;;;-144.14;98.93
7075;BME280;3578;51.568;6.932;2023-03-18T06:38:05;52340.34;;;-144.14;98.66
7075;BME280;3578;51.568;6.932;2023-03-18T06:40:33;52348.34;;;-144.14;98.56
7075;BME280;3578;51.568;6.932;2023-03-18T06:43:02;52360.38;;;-144.14;98.40
7075;BME280;3578;51.568;6.932;2023-03-18T06:45:29;52340.34;;;-144.14;98.31
7075;BME280;3578;51.568;6.932;2023-03-18T06:47:57;52388.41;;;-144.14;98.18
7075;BME280;3578;51.568;6.932;2023-03-18T06:50:25;52374.41;;;-144.14;98.00
7075;BME280;3578;51.568;6.932;2023-03-18T06:52:52;52392.44;;;-144.14;98.05
7075;BME280;3578;51.568;6.932;2023-03-18T06:55:19;52402.44;;;-144.14;98.21
7075;BME280;3578;51.568;6.932;2023-03-18T06:57:46;52384.41;;;-144.14;98.22
7075;BME280;3578;51.568;6.932;2023-03-18T07:00:17;52388.41;;;-144.14;98.10
7075;BME280;3578;51.568;6.932;2023-03-18T07:02:44;52412.47;;;-144.14;98.01
7075;BME280;3578;51.568;6.932;2023-03-18T07:05:11;52448.53;;;-144.14;97.75
7075;BME280;3578;51.568;6.932;2023-03-18T07:07:39;52494.63;;;-144.14;97.30
7075;BME280;3578;51.568;6.932;2023-03-18T07:10:13;52845.28;;;-144.14;93.16
7075;BME280;3578;51.568;6.932;2023-03-18T07:12:43;53370.31;;;-144.14;85.12
7075;BME280;3578;51.568;6.932;2023-03-18T07:15:10;54099.91;;;-144.14;74.06
7075;BME280;3578;51.568;6.932;2023-03-18T07:17:39;54581.06;;;-144.14;63.67
7075;BME280;3578;51.568;6.932;2023-03-18T07:20:07;55098.34;;;-144.14;55.13
7075;BME280;3578;51.568;6.932;2023-03-18T07:22:34;55603.69;;;-144.14;48.54
7075;BME280;3578;51.568;6.932;2023-03-18T07:25:02;55555.56;;;-144.14;48.01
7075;BME280;3578;51.568;6.932;2023-03-18T07:27:29;55142.47;;;-144.14;53.53
7075;BME280;3578;51.568;6.932;2023-03-18T07:29:56;54891.81;;;-144.14;59.83
7075;BME280;3578;51.568;6.932;2023-03-18T07:32:22;54661.25;;;-144.14;67.14
7075;BME280;3578;51.568;6.932;2023-03-18T07:34:51;54737.44;;;-144.14;64.97
7075;BME280;3578;51.568;6.932;2023-03-18T07:37:18;54847.72;;;-144.14;62.94
7075;BME280;3578;51.568;6.932;2023-03-18T07:39:45;54857.75;;;-144.14;62.37
7075;BME280;3578;51.568;6.932;2023-03-18T07:42:12;54986.06;;;-144.14;59.70
7075;BME280;3578;51.568;6.932;2023-03-18T07:44:40;55134.44;;;-144.14;56.33
7075;BME280;3578;51.568;6.932;2023-03-18T07:47:07;55326.94;;;-144.14;53.45
7075;BME280;3578;51.568;6.932;2023-03-18T07:49:34;55415.19;;;-144.14;51.58
7075;BME280;3578;51.568;6.932;2023-03-18T07:52:02;55936.63;;;-144.14;47.75
7075;BME280;3578;51.568;6.932;2023-03-18T07:54:29;56891.47;;;-144.14;42.09
7075;BME280;3578;51.568;6.932;2023-03-18T07:56:56;57926.84;;;-144.14;37.07
7075;BME280;3578;51.568;6.932;2023-03-18T07:59:23;58129.53;;;-144.14;35.93
7075;BME280;3578;51.568;6.932;2023-03-18T08:01:50;57669.97;;;-144.14;36.33
7075;BME280;3578;51.568;6.932;2023-03-18T08:04:17;56787.13;;;-144.14;39.76
7075;BME280;3578;51.568;6.932;2023-03-18T08:06:44;56434.06;;;-144.14;41.88
7075;BME280;3578;51.568;6.932;2023-03-18T08:09:13;56193.34;;;-144.14;43.83
7075;BME280;3578;51.568;6.932;2023-03-18T08:11:40;55840.34;;;-144.14;46.30
7075;BME280;3578;51.568;6.932;2023-03-18T08:14:07;55401.16;;;-144.14;51.93
7075;BME280;3578;51.568;6.932;2023-03-18T08:16:34;55154.50;;;-144.14;58.97
7075;BME280;3578;51.568;6.932;2023-03-18T08:19:02;55014.13;;;-144.14;66.37
7075;BME280;3578;51.568;6.932;2023-03-18T08:21:29;54941.94;;;-144.14;70.37
7075;BME280;3578;51.568;6.932;2023-03-18T08:23:56;54889.81;;;-144.14;73.74
7075;BME280;3578;51.568;6.932;2023-03-18T08:26:25;54841.69;;;-144.14;74.57
7075;BME280;3578;51.568;6.932;2023-03-18T08:28:52;54889.81;;;-144.14;72.63
7075;BME280;3578;51.568;6.932;2023-03-18T08:31:18;54905.84;;;-144.14;71.18
7075;BME280;3578;51.568;6.932;2023-03-18T08:33:46;54881.78;;;-144.14;69.73
7075;BME280;3578;51.568;6.932;2023-03-18T08:36:14;54821.66;;;-144.14;72.31
7075;BME280;3578;51.568;6.932;2023-03-18T08:38:41;54659.25;;;-144.14;74.78
7075;BME280;3578;51.568;6.932;2023-03-18T08:41:09;54605.09;;;-144.14;77.03
7075;BME280;3578;51.568;6.932;2023-03-18T08:43:37;54534.94;;;-144.14;79.25
7075;BME280;3578;51.568;6.932;2023-03-18T08:46:04;54528.94;;;-144.14;80.32
7075;BME280;3578;51.568;6.932;2023-03-18T08:48:31;54589.06;;;-144.14;80.89
7075;BME280;3578;51.568;6.932;2023-03-18T08:51:02;54679.28;;;-144.14;78.00
7075;BME280;3578;51.568;6.932;2023-03-18T08:53:29;54649.22;;;-144.14;75.88
7075;BME280;3578;51.568;6.932;2023-03-18T08:55:57;54765.50;;;-144.14;74.56
7075;BME280;3578;51.568;6.932;2023-03-18T08:58:25;54807.59;;;-144.14;71.96
7075;BME280;3578;51.568;6.932;2023-03-18T09:00:54;54785.56;;;-144.14;74.21
7075;BME280;3578;51.568;6.932;2023-03-18T09:03:22;54813.63;;;-144.14;74.47
7075;BME280;3578;51.568;6.932;2023-03-18T09:05:50;54823.66;;;-144.14;71.91
7075;BME280;3578;51.568;6.932;2023-03-18T09:08:18;54811.63;;;-144.14;73.30
7075;BME280;3578;51.568;6.932;2023-03-18T09:10:47;54839.69;;;-144.14;74.15
7075;BME280;3578;51.568;6.932;2023-03-18T09:13:14;54849.72;;;-144.14;72.74
7075;BME280;3578;51.568;6.932;2023-03-18T09:15:40;54829.66;;;-144.14;71.54
7075;BME280;3578;51.568;6.932;2023-03-18T09:18:09;54801.59;;;-144.14;73.49
7075;BME280;3578;51.568;6.932;2023-03-18T09:20:36;54865.75;;;-144.14;71.30
7075;BME280;3578;51.568;6.932;2023-03-18T09:23:03;54801.59;;;-144.14;72.53
7075;BME280;3578;51.568;6.932;2023-03-18T09:25:30;54799.59;;;-144.14;73.67
7075;BME280;3578;51.568;6.932;2023-03-18T09:27:58;54801.59;;;-144.14;72.71
7075;BME280;3578;51.568;6.932;2023-03-18T09:30:26;54763.50;;;-144.14;71.05
7075;BME280;3578;51.568;6.932;2023-03-18T09:32:53;54851.72;;;-144.14;71.61
7075;BME280;3578;51.568;6.932;2023-03-18T09:35:23;54889.81;;;-144.14;71.40
7075;BME280;3578;51.568;6.932;2023-03-18T09:37:50;54992.06;;;-144.14;68.76
7075;BME280;3578;51.568;6.932;2023-03-18T09:40:23;54992.06;;;-144.14;66.42
7075;BME280;3578;51.568;6.932;2023-03-18T09:43:08;54933.94;;;-144.14;66.13
7075;BME280;3578;51.568;6.932;2023-03-18T09:45:50;54901.84;;;-144.14;65.92
7075;BME280;3578;51.568;6.932;2023-03-18T09:51:43;54817.63;;;-144.14;67.06
7075;BME280;3578;51.568;6.932;2023-03-18T09:54:17;54769.50;;;-144.14;67.46
7075;BME280;3578;51.568;6.932;2023-03-18T09:56:46;54755.47;;;-144.14;68.50
7075;BME280;3578;51.568;6.932;2023-03-18T09:59:20;54725.41;;;-144.14;68.01
7075;BME280;3578;51.568;6.932;2023-03-18T10:01:52;54723.41;;;-144.14;69.84
7075;BME280;3578;51.568;6.932;2023-03-18T10:04:22;54763.50;;;-144.14;67.70
7075;BME280;3578;51.568;6.932;2023-03-18T10:06:56;54709.38;;;-144.14;67.42
7075;BME280;3578;51.568;6.932;2023-03-18T10:09:28;54749.47;;;-144.14;69.60
7075;BME280;3578;51.568;6.932;2023-03-18T10:12:03;54669.25;;;-144.14;68.44
7075;BME280;3578;51.568;6.932;2023-03-18T10:14:38;54853.72;;;-144.14;66.83
7075;BME280;3578;51.568;6.932;2023-03-18T10:17:16;54881.78;;;-144.14;66.13
7075;BME280;3578;51.568;6.932;2023-03-18T10:19:47;54937.94;;;-144.14;63.95
7075;BME280;3578;51.568;6.932;2023-03-18T10:22:50;54949.97;;;-144.14;62.00
7075;BME280;3578;51.568;6.932;2023-03-18T10:25:25;54982.06;;;-144.14;59.17
7075;BME280;3578;51.568;6.932;2023-03-18T10:28:17;54984.06;;;-144.14;61.10
7075;BME280;3578;51.568;6.932;2023-03-18T10:30:57;54994.09;;;-144.14;61.45
7075;BME280;3578;51.568;6.932;2023-03-18T10:33:35;55014.13;;;-144.14;59.31
7075;BME280;3578;51.568;6.932;2023-03-18T10:36:12;54964.00;;;-144.14;60.33
7075;BME280;3578;51.568;6.932;2023-03-18T10:38:46;54917.88;;;-144.14;58.55
7075;BME280;3578;51.568;6.932;2023-03-18T10:41:20;54879.78;;;-144.14;61.48
7075;BME280;3578;51.568;6.932;2023-03-18T10:43:49;54861.75;;;-144.14;62.89
7075;BME280;3578;51.568;6.932;2023-03-18T10:46:19;54909.88;;;-144.14;61.95
7075;BME280;3578;51.568;6.932;2023-03-18T10:48:51;54897.84;;;-144.14;60.98
7075;BME280;3578;51.568;6.932;2023-03-18T10:51:27;54865.75;;;-144.14;60.42
7075;BME280;3578;51.568;6.932;2023-03-18T10:54:03;54779.53;;;-144.14;60.82
7075;BME280;3578;51.568;6.932;2023-03-18T10:56:34;54711.38;;;-144.14;64.34
7075;BME280;3578;51.568;6.932;2023-03-18T10:59:11;54709.38;;;-144.14;64.60
7075;BME280;3578;51.568;6.932;2023-03-18T11:01:41;54727.41;;;-144.14;64.02
7075;BME280;3578;51.568;6.932;2023-03-18T11:04:13;54837.69;;;-144.14;63.06
7075;BME280;3578;51.568;6.932;2023-03-18T11:06:45;54943.94;;;-144.14;62.93
7075;BME280;3578;51.568;6.932;2023-03-18T11:09:17;54978.03;;;-144.14;61.50
7075;BME280;3578;51.568;6.932;2023-03-18T11:11:46;55102.34;;;-144.14;58.36
7075;BME280;3578;51.568;6.932;2023-03-18T11:14:17;55102.34;;;-144.14;53.86
7075;BME280;3578;51.568;6.932;2023-03-18T11:16:47;55108.38;;;-144.14;53.99
7075;BME280;3578;51.568;6.932;2023-03-18T11:19:30;55066.25;;;-144.14;55.51
7075;BME280;3578;51.568;6.932;2023-03-18T11:22:17;55114.38;;;-144.14;54.70
7075;BME280;3578;51.568;6.932;2023-03-18T11:24:50;55058.25;;;-144.14;54.12
7075;BME280;3578;51.568;6.932;2023-03-18T11:27:37;55018.16;;;-144.14;54.39
7075;BME280;3578;51.568;6.932;2023-03-18T11:30:14;54978.03;;;-144.14;55.59
7075;BME280;3578;51.568;6.932;2023-03-18T11:32:54;54958.00;;;-144.14;54.82
7075;BME280;3578;51.568;6.932;2023-03-18T11:35:32;54966.00;;;-144.14;54.54
7075;BME280;3578;51.568;6.932;2023-03-18T11:38:03;55022.16;;;-144.14;54.43
7075;BME280;3578;51.568;6.932;2023-03-18T11:40:33;55098.34;;;-144.14;54.09
7075;BME280;3578;51.568;6.932;2023-03-18T11:43:02;55102.34;;;-144.14;52.75
7075;BME280;3578;51.568;6.932;2023-03-18T11:45:40;55110.38;;;-144.14;53.02
7075;BME280;3578;51.568;6.932;2023-03-18T11:48:16;55074.28;;;-144.14;51.73
7075;BME280;3578;51.568;6.932;2023-03-18T11:54:05;54947.97;;;-144.14;53.78
7075;BME280;3578;51.568;6.932;2023-03-18T11:56:41;54909.88;;;-144.14;56.26
7075;BME280;3578;51.568;6.932;2023-03-18T11:59:27;54949.97;;;-144.14;57.53
7075;BME280;3578;51.568;6.932;2023-03-18T12:02:17;55048.22;;;-144.14;57.08
7075;BME280;3578;51.568;6.932;2023-03-18T12:05:30;55018.16;;;-144.14;54.59
7075;BME280;3578;51.568;6.932;2023-03-18T12:08:11;55152.50;;;-144.14;53.61
7075;BME280;3578;51.568;6.932;2023-03-18T12:10:43;55206.63;;;-144.14;53.33
7075;BME280;3578;51.568;6.932;2023-03-18T12:13:32;55248.75;;;-144.14;51.11
7075;BME280;3578;51.568;6.932;2023-03-18T12:16:09;55214.66;;;-144.14;49.88
7075;BME280;3578;51.568;6.932;2023-03-18T12:18:59;55194.59;;;-144.14;50.03
7075;BME280;3578;51.568;6.932;2023-03-18T12:21:57;55282.84;;;-144.14;49.66
7075;BME280;3578;51.568;6.932;2023-03-18T12:24:49;55246.75;;;-144.14;49.58
7075;BME280;3578;51.568;6.932;2023-03-18T12:27:26;55198.59;;;-144.14;50.02
7075;BME280;3578;51.568;6.932;2023-03-18T12:30:22;55166.53;;;-144.14;51.17
7075;BME280;3578;51.568;6.932;2023-03-18T12:33:02;55156.50;;;-144.14;51.20
7075;BME280;3578;51.568;6.932;2023-03-18T12:35:47;55138.44;;;-144.14;51.98
7075;BME280;3578;51.568;6.932;2023-03-18T12:38:50;55172.53;;;-144.14;50.21
7075;BME280;3578;51.568;6.932;2023-03-18T12:41:27;55194.59;;;-144.14;49.87
7075;BME280;3578;51.568;6.932;2023-03-18T12:44:22;55282.84;;;-144.14;51.31
7075;BME280;3578;51.568;6.932;2023-03-18T12:47:01;55286.84;;;-144.14;48.77
7075;BME280;3578;51.568;6.932;2023-03-18T12:49:33;55318.94;;;-144.14;49.08
7075;BME280;3578;51.568;6.932;2023-03-18T12:52:06;55288.84;;;-144.14;47.91
7075;BME280;3578;51.568;6.932;2023-03-18T12:54:38;55310.91;;;-144.14;49.00
7075;BME280;3578;51.568;6.932;2023-03-18T12:57:14;55312.91;;;-144.14;47.54
7075;BME280;3578;51.568;6.932;2023-03-18T12:59:51;55393.13;;;-144.14;47.20
7075;BME280;3578;51.568;6.932;2023-03-18T13:02:40;55439.25;;;-144.14;46.98
7075;BME280;3578;51.568;6.932;2023-03-18T13:05:22;55443.25;;;-144.14;46.14
7075;BME280;3578;51.568;6.932;2023-03-18T13:11:13;55517.47;;;-144.14;45.90
7075;BME280;3578;51.568;6.932;2023-03-18T13:13:50;55427.22;;;-144.14;45.65
7075;BME280;3578;51.568;6.932;2023-03-18T13:16:21;55359.03;;;-144.14;47.14
7075;BME280;3578;51.568;6.932;2023-03-18T13:18:54;55338.97;;;-144.14;46.89
7075;BME280;3578;51.568;6.932;2023-03-18T13:21:25;55320.94;;;-144.14;46.58
7075;BME280;3578;51.568;6.932;2023-03-18T13:24:40;55343.00;;;-144.14;48.36
7075;BME280;3578;51.568;6.932;2023-03-18T13:27:34;55292.84;;;-144.14;47.60
7075;BME280;3578;51.568;6.932;2023-03-18T13:30:15;55250.75;;;-144.14;48.04